• Join FlightAware (Why Join?)
  • Login
  • US Flag 
12:28PM EDT


 

Airport Tracker/Info


-or-


 

Live Flight TrackerFlight Track Log ✈ SKW5564 ✈ 04-Jul-2013 ✈ KSLC - KDEN

Flight Track Log - Related Links

Times and Time Zones

All times are in EDT time to prevent confusion due to time zone crossing. See the SKW5564 flight status page for this flight to view local times or setup timezone preferences in your user account.

Time Position Orientation Groundspeed Altitude Reporting Facility
EDT Latitude Longitude Course Direction KTS MPH feet Rate Location/Type
03:41PM 41.0146 -112.1164 81° East  Level FlightAware Approximate
03:42PM 40.9828 -111.9639 103° East  Level FlightAware Approximate
03:43PM 40.9545 -111.8073 103° East  Level FlightAware Approximate
03:44PM 40.9260 -111.6509 104° East  Level FlightAware Approximate
03:45PM 40.9126 -111.4921 102° East  Level FlightAware Approximate
03:46PM 40.8906 -111.3343 101° East  Level FlightAware Approximate
03:47PM 40.8721 -111.1755 98° East  Level FlightAware Approximate
03:48PM 40.8553 -111.0163 98° East  Level FlightAware Approximate
03:49PM 40.8345 -110.8580 101° East  Level FlightAware Approximate
03:50PM 40.8134 -110.6999 100° East  Level FlightAware Approximate
03:51PM 40.7928 -110.5416 99° East  Level FlightAware Approximate
03:52PM 40.7731 -110.3832 99° East  Level FlightAware Approximate
03:53PM 40.7532 -110.2249 99° East  Level FlightAware Approximate
03:54PM 40.7366 -110.0660 97° East  Level FlightAware Approximate
03:55PM 40.7267 -109.9062 94° East  Level FlightAware Approximate
03:56PM 40.7183 -109.7462 94° East  Level FlightAware Approximate
03:57PM 40.7050 -109.5869 97° East  Level FlightAware Approximate
03:58PM 40.6905 -109.4277 97° East  Level FlightAware Approximate
03:59PM 40.6780 -109.2683 95° East  Level FlightAware Approximate
04:00PM 40.6673 -109.1087 95° East  Level FlightAware Approximate
04:01PM 40.6552 -108.9492 96° East  Level FlightAware Approximate
04:02PM 40.6429 -108.7899 96° East  Level FlightAware Approximate
04:03PM 40.6303 -108.6305 96° East  Level FlightAware Approximate
04:04PM 40.6175 -108.4713 96° East  Level FlightAware Approximate
04:05PM 40.6045 -108.3121 96° East  Level FlightAware Approximate
04:06PM 40.5913 -108.1530 96° East  Level FlightAware Approximate
04:07PM 40.5779 -107.9939 96° East  Level FlightAware Approximate
04:08PM 40.5642 -107.8349 96° East  Level FlightAware Approximate
04:09PM 40.5504 -107.6760 97° East  Level FlightAware Approximate
04:10PM 40.5363 -107.5171 97° East  Level FlightAware Approximate
04:11PM 40.5220 -107.3583 97° East  Level FlightAware Approximate
04:12PM 40.5099 -107.1993 95° East  Level FlightAware Approximate
04:13PM 40.4991 -107.0401 95° East  Level FlightAware Approximate
04:14PM 40.4880 -106.8809 95° East  Level FlightAware Approximate
04:15PM 40.4767 -106.7218 95° East  Level FlightAware Approximate
04:16PM 40.4667 -106.5627 90° East  Level FlightAware Approximate
04:17PM 40.4667 -106.4029 90° East  Level FlightAware Approximate
04:18PM 40.4468 -106.2542 94° East  Level FlightAware Approximate
04:19PM 40.4384 -106.0948 94° East  Level FlightAware Approximate
04:20PM 40.4275 -105.9360 99° East  Level FlightAware Approximate
04:21PM 40.4078 -105.7785 99° East  Level FlightAware Approximate
04:22PM 40.3771 -105.6269 98° East  Level FlightAware Approximate
04:23PM 40.3541 -105.4705 105° East  Level FlightAware Approximate
04:24PM 40.2927 -105.3378 128° Southeast  Level FlightAware Approximate
04:25PM 40.2126 -105.2189 131° Southeast  Level FlightAware Approximate
04:26PM 40.1382 -105.0989 131° Southeast  Level FlightAware Approximate
04:27PM 40.0619 -104.9753 128° Southeast  Level FlightAware Approximate
04:28PM 39.9832 -104.8553 128° Southeast  Level FlightAware Approximate
04:29PM 39.8823 -104.8000 180° South  Level FlightAware Approximate
04:30PM 39.8617 -104.6732 180° South  Level Estimated
04:31PM 39.8617 -104.6732 180° South  Level Estimated
04:32PM 39.8617 -104.6732 185° South  Level Estimated
04:33PM 39.8617 -104.6732 14° North  Level Estimated
04:34PM 39.8617 -104.6732 193° South  Level Estimated
04:35PM 39.8617 -104.6732 18° North  Level Estimated
04:36PM 39.8617 -104.6732 North  Level Estimated
04:37PM 39.8617 -104.6732 North  Level Estimated
04:38PM 39.8617 -104.6732 North  Level Estimated
04:39PM 39.8617 -104.6732 North  Level Estimated